createdAt,value
2017-10-25T00:00:54.594Z,101350
2017-10-25T00:03:22.833Z,101350
2017-10-25T00:05:50.994Z,101355
2017-10-25T00:08:19.936Z,101350
2017-10-25T00:10:48.100Z,101357
2017-10-25T00:13:16.247Z,101348
2017-10-25T00:15:45.637Z,101334
2017-10-25T00:18:13.874Z,101339
2017-10-25T00:20:42.042Z,101338
2017-10-25T00:23:10.838Z,101335
2017-10-25T00:25:39.510Z,101335
2017-10-25T00:28:07.655Z,101331
2017-10-25T00:30:36.587Z,101324
2017-10-25T00:33:04.737Z,101322
2017-10-25T00:35:32.927Z,101327
2017-10-25T00:38:01.084Z,101326
2017-10-25T00:40:29.271Z,101329
2017-10-25T00:42:57.422Z,101328
2017-10-25T00:45:25.592Z,101328
2017-10-25T00:47:53.754Z,101324
2017-10-25T00:50:22.662Z,101315
2017-10-25T00:52:50.823Z,101319
2017-10-25T00:55:18.982Z,101318
2017-10-25T00:57:47.915Z,101307
2017-10-25T01:00:16.062Z,101309
2017-10-25T01:02:44.233Z,101311
2017-10-25T01:05:12.378Z,101299
2017-10-25T01:07:41.352Z,101299
2017-10-25T01:10:09.504Z,101297
2017-10-25T01:12:37.667Z,101295
2017-10-25T01:15:05.817Z,101291
2017-10-25T01:17:34.011Z,101287
2017-10-25T01:20:02.476Z,101292
2017-10-25T01:22:30.651Z,101279
2017-10-25T01:24:58.798Z,101287
2017-10-25T01:27:27.715Z,101286
2017-10-25T01:29:55.876Z,101287
2017-10-25T01:32:24.078Z,101281
2017-10-25T01:34:52.257Z,101275
2017-10-25T01:37:20.408Z,101273
2017-10-25T01:39:48.567Z,101275
2017-10-25T01:42:16.719Z,101278
2017-10-25T01:44:44.892Z,101266
2017-10-25T01:47:13.803Z,101275
2017-10-25T01:49:41.997Z,101265
2017-10-25T01:52:10.142Z,101270
2017-10-25T01:54:38.302Z,101265
2017-10-25T01:57:07.218Z,101260
2017-10-25T01:59:35.391Z,101275
2017-10-25T02:02:03.544Z,101266
2017-10-25T02:04:32.464Z,101257
2017-10-25T02:07:00.645Z,101263
2017-10-25T02:09:28.810Z,101265
2017-10-25T02:11:56.979Z,101258
2017-10-25T02:14:25.135Z,101256
2017-10-25T02:16:53.315Z,101252
2017-10-25T02:19:21.470Z,101250
2017-10-25T02:21:50.498Z,101254
2017-10-25T02:24:18.654Z,101251
2017-10-25T02:26:46.831Z,101257
2017-10-25T02:29:15.734Z,101266
2017-10-25T02:31:43.895Z,101248
2017-10-25T02:34:12.043Z,101252
2017-10-25T02:36:41.081Z,101259
2017-10-25T02:39:10.070Z,101255
2017-10-25T02:41:38.260Z,101245
2017-10-25T02:44:06.519Z,101245
2017-10-25T02:46:34.691Z,101238
2017-10-25T02:49:02.852Z,101251
2017-10-25T02:51:31.007Z,101244
2017-10-25T02:53:59.175Z,101248
2017-10-25T02:56:27.319Z,101245
2017-10-25T02:58:55.488Z,101245
2017-10-25T03:01:23.638Z,101249
2017-10-25T03:03:51.832Z,101249
2017-10-25T03:06:20.071Z,101235
2017-10-25T03:08:48.232Z,101248
2017-10-25T03:11:16.384Z,101237
2017-10-25T03:13:44.546Z,101254
2017-10-25T03:16:13.462Z,101259
2017-10-25T03:18:41.751Z,101248
2017-10-25T03:21:09.902Z,101236
2017-10-25T03:23:38.062Z,101246
2017-10-25T03:26:06.991Z,101246
2017-10-25T03:28:35.365Z,101228
2017-10-25T03:31:03.544Z,101234
2017-10-25T03:33:31.693Z,101227
2017-10-25T03:35:59.872Z,101232
2017-10-25T03:38:28.019Z,101231
2017-10-25T03:40:57.662Z,101235
2017-10-25T03:43:25.819Z,101234
2017-10-25T03:45:53.982Z,101233
2017-10-25T03:48:22.201Z,101229
2017-10-25T03:50:50.484Z,101238
2017-10-25T03:53:18.739Z,101221
2017-10-25T03:55:47.523Z,101229
2017-10-25T03:58:15.674Z,101230
2017-10-25T04:00:44.074Z,101231
2017-10-25T04:03:12.235Z,101221
2017-10-25T04:05:40.386Z,101231
2017-10-25T04:08:09.259Z,101228
2017-10-25T04:10:38.174Z,101219
2017-10-25T04:13:06.349Z,101230
2017-10-25T04:15:34.498Z,101221
2017-10-25T04:18:03.430Z,101223
2017-10-25T04:20:31.582Z,101218
2017-10-25T04:22:59.756Z,101226
2017-10-25T04:25:27.963Z,101233
2017-10-25T04:27:56.130Z,101225
2017-10-25T04:30:24.296Z,101224
2017-10-25T04:32:52.467Z,101239
2017-10-25T04:35:20.657Z,101221
2017-10-25T04:37:48.835Z,101222
2017-10-25T04:40:17.586Z,101215
2017-10-25T04:42:45.751Z,101209
2017-10-25T04:45:14.054Z,101216
2017-10-25T04:47:42.223Z,101229
2017-10-25T04:50:10.385Z,101226
2017-10-25T04:52:38.579Z,101221
2017-10-25T04:55:06.746Z,101224
2017-10-25T04:57:34.891Z,101228
2017-10-25T05:00:03.078Z,101215
2017-10-25T05:02:31.811Z,101216
2017-10-25T05:04:59.985Z,101220
2017-10-25T05:07:28.139Z,101224
2017-10-25T05:09:56.322Z,101220
2017-10-25T05:12:24.486Z,101224
2017-10-25T05:14:52.655Z,101220
2017-10-25T05:17:20.814Z,101217
2017-10-25T05:19:48.993Z,101212
2017-10-25T05:22:17.153Z,101212
2017-10-25T05:24:45.325Z,101203
2017-10-25T05:27:13.508Z,101205
2017-10-25T05:29:42.021Z,101213
2017-10-25T05:32:10.186Z,101209
2017-10-25T05:34:38.347Z,101214
2017-10-25T05:37:06.516Z,101214
2017-10-25T05:39:34.706Z,101214
2017-10-25T05:42:02.947Z,101217
2017-10-25T05:44:31.099Z,101219
2017-10-25T05:46:59.271Z,101225
2017-10-25T05:49:27.427Z,101230
2017-10-25T05:51:56.358Z,101231
2017-10-25T05:54:24.506Z,101225
2017-10-25T05:56:52.671Z,101216
2017-10-25T05:59:21.579Z,101222
2017-10-25T06:01:49.747Z,101233
2017-10-25T06:04:17.898Z,101228
2017-10-25T06:06:46.822Z,101230
2017-10-25T06:09:14.999Z,101224
2017-10-25T06:11:43.146Z,101221
2017-10-25T06:14:12.032Z,101234
2017-10-25T06:16:40.788Z,101236
2017-10-25T06:19:08.955Z,101237
2017-10-25T06:21:37.131Z,101231
2017-10-25T06:24:05.302Z,101234
2017-10-25T06:26:33.451Z,101247
2017-10-25T06:29:01.719Z,101233
2017-10-25T06:31:29.862Z,101233
2017-10-25T06:33:58.038Z,101225
2017-10-25T06:36:26.314Z,101220
2017-10-25T06:38:54.859Z,101234
2017-10-25T06:41:23.009Z,101231
2017-10-25T06:43:51.203Z,101231
2017-10-25T06:46:19.353Z,101237
2017-10-25T06:48:47.500Z,101247
2017-10-25T06:51:15.686Z,101241
2017-10-25T06:53:43.835Z,101248
2017-10-25T06:56:12.000Z,101232
2017-10-25T06:58:40.147Z,101230
2017-10-25T07:01:09.089Z,101242
2017-10-25T07:03:37.244Z,101230
2017-10-25T07:06:05.428Z,101234
2017-10-25T07:08:33.974Z,101238
2017-10-25T07:11:02.907Z,101237
2017-10-25T07:13:31.048Z,101239
2017-10-25T07:15:59.217Z,101241
2017-10-25T07:18:28.118Z,101234
2017-10-25T07:20:56.313Z,101225
2017-10-25T07:23:24.467Z,101225
2017-10-25T07:25:52.639Z,101224
2017-10-25T07:28:20.787Z,101229
2017-10-25T07:30:49.700Z,101235
2017-10-25T07:33:17.870Z,101234
2017-10-25T07:35:46.005Z,101233
2017-10-25T07:38:14.169Z,101229
2017-10-25T07:40:42.416Z,101225
2017-10-25T07:43:10.591Z,101229
2017-10-25T07:45:38.741Z,101227
2017-10-25T07:48:07.301Z,101219
2017-10-25T07:50:37.376Z,101225
2017-10-25T07:53:05.545Z,101217
2017-10-25T07:55:33.699Z,101215
2017-10-25T07:58:01.854Z,101214
2017-10-25T08:00:29.999Z,101211
2017-10-25T08:02:58.979Z,101220
2017-10-25T08:05:27.363Z,101218
2017-10-25T08:07:55.520Z,101219
2017-10-25T08:10:23.688Z,101220
2017-10-25T08:12:51.852Z,101233
2017-10-25T08:15:20.033Z,101226
2017-10-25T08:17:48.278Z,101209
2017-10-25T08:20:16.434Z,101217
2017-10-25T08:22:44.840Z,101222
2017-10-25T08:25:13.438Z,101218
2017-10-25T08:27:41.587Z,101222
2017-10-25T08:30:09.756Z,101229
2017-10-25T08:32:38.454Z,101222
2017-10-25T08:35:06.618Z,101230
2017-10-25T08:37:35.150Z,101225
2017-10-25T08:40:04.768Z,101227
2017-10-25T08:42:33.706Z,101224
2017-10-25T08:45:01.870Z,101201
2017-10-25T08:47:30.019Z,101205
2017-10-25T08:49:58.186Z,101207
2017-10-25T08:52:26.335Z,101215
2017-10-25T08:54:54.514Z,101216
2017-10-25T08:57:23.430Z,101222
2017-10-25T08:59:51.578Z,101225
2017-10-25T09:02:20.515Z,101219
2017-10-25T09:04:49.410Z,101221
2017-10-25T09:07:17.678Z,101223
2017-10-25T09:09:45.835Z,101229
2017-10-25T09:12:14.022Z,101230
2017-10-25T09:21:41.486Z,101229
2017-10-25T09:24:10.399Z,101227
2017-10-25T09:26:38.556Z,101250
2017-10-25T09:29:07.578Z,101231
2017-10-25T09:31:35.766Z,101231
2017-10-25T09:34:04.012Z,101224
2017-10-25T09:36:32.155Z,101216
2017-10-25T09:39:01.083Z,101221
2017-10-25T09:41:29.231Z,101204
2017-10-25T09:43:58.154Z,101219
2017-10-25T09:46:26.335Z,101209
2017-10-25T09:48:54.498Z,101224
2017-10-25T09:51:22.648Z,101217
2017-10-25T09:53:50.799Z,101214
2017-10-25T09:56:19.788Z,101215
2017-10-25T09:58:48.719Z,101220
2017-10-25T10:01:16.860Z,101216
2017-10-25T10:03:46.514Z,101205
2017-10-25T10:06:14.682Z,101207
2017-10-25T10:08:42.865Z,101210
2017-10-25T10:11:11.123Z,101202
2017-10-25T10:13:39.271Z,101197
2017-10-25T10:16:07.442Z,101200
2017-10-25T10:18:36.347Z,101187
2017-10-25T10:21:04.532Z,101206
2017-10-25T10:23:32.684Z,101194
2017-10-25T10:26:00.875Z,101187
2017-10-25T10:28:29.057Z,101183
2017-10-25T10:30:57.214Z,101175
2017-10-25T10:33:25.774Z,101192
2017-10-25T10:35:55.310Z,101176
2017-10-25T10:38:23.451Z,101180
2017-10-25T10:40:52.371Z,101164
2017-10-25T10:43:20.514Z,101175
2017-10-25T10:45:49.438Z,101165
2017-10-25T10:48:17.591Z,101159
2017-10-25T10:50:45.762Z,101167
2017-10-25T10:53:13.968Z,101184
2017-10-25T10:55:42.130Z,101183
2017-10-25T10:58:10.274Z,101176
2017-10-25T11:00:38.475Z,101174
2017-10-25T11:03:06.624Z,101165
2017-10-25T11:05:34.829Z,101160
2017-10-25T11:08:02.974Z,101159
2017-10-25T11:10:31.130Z,101170
2017-10-25T11:13:00.161Z,101161
2017-10-25T11:15:28.330Z,101161
2017-10-25T11:17:56.485Z,101152
2017-10-25T11:20:24.655Z,101157
2017-10-25T11:22:52.807Z,101175
2017-10-25T11:25:22.443Z,101179
2017-10-25T11:27:50.629Z,101167
2017-10-25T11:30:18.774Z,101171
2017-10-25T11:32:46.939Z,101178
2017-10-25T11:35:15.846Z,101174
2017-10-25T11:37:44.011Z,101161
2017-10-25T11:40:12.620Z,101157
2017-10-25T11:42:40.788Z,101183
2017-10-25T11:45:08.935Z,101161
2017-10-25T11:47:37.883Z,101161
2017-10-25T11:50:06.036Z,101152
2017-10-25T11:52:34.181Z,101144
2017-10-25T11:55:02.343Z,101149
2017-10-25T11:57:30.491Z,101147
2017-10-25T11:59:58.646Z,101146
2017-10-25T12:02:26.791Z,101148
2017-10-25T12:04:54.952Z,101150
2017-10-25T12:07:23.120Z,101141
2017-10-25T12:09:51.276Z,101138
2017-10-25T12:12:21.011Z,101135
2017-10-25T12:14:49.163Z,101137
2017-10-25T12:17:17.303Z,101145
2017-10-25T12:19:45.469Z,101132
2017-10-25T12:22:13.690Z,101125
2017-10-25T12:24:41.846Z,101140
2017-10-25T12:27:09.999Z,101142
2017-10-25T12:29:38.227Z,101144
2017-10-25T12:32:06.485Z,101139
2017-10-25T12:34:34.658Z,101143
2017-10-25T12:37:02.828Z,101158
2017-10-25T12:39:30.990Z,101137
2017-10-25T12:41:59.908Z,101139
2017-10-25T12:44:28.043Z,101136
2017-10-25T12:46:57.320Z,101131
2017-10-25T12:49:25.467Z,101128
2017-10-25T12:51:53.627Z,101123
2017-10-25T12:54:21.798Z,101118
2017-10-25T12:56:49.962Z,101109
2017-10-25T12:59:18.517Z,101116
2017-10-25T13:01:47.443Z,101106
2017-10-25T13:04:15.579Z,101108
2017-10-25T13:06:44.512Z,101117
2017-10-25T13:09:12.678Z,101139
2017-10-25T13:11:43.078Z,101146
2017-10-25T13:14:22.637Z,101139
2017-10-25T13:16:52.315Z,101135
2017-10-25T13:19:21.222Z,101125
2017-10-25T13:21:49.368Z,101129
2017-10-25T13:24:18.300Z,101114
2017-10-25T13:26:46.439Z,101137
2017-10-25T13:29:15.376Z,101129
2017-10-25T13:31:43.528Z,101133
2017-10-25T13:34:11.691Z,101136
2017-10-25T13:36:39.892Z,101127
2017-10-25T13:39:08.063Z,101142
2017-10-25T13:41:36.207Z,101154
2017-10-25T13:44:04.366Z,101165
2017-10-25T13:46:33.271Z,101151
2017-10-25T13:49:01.432Z,101154
2017-10-25T13:51:30.336Z,101152
2017-10-25T13:53:58.498Z,101159
2017-10-25T13:56:27.403Z,101159
2017-10-25T13:58:55.565Z,101164
2017-10-25T14:01:23.719Z,101161
2017-10-25T14:03:52.673Z,101164
2017-10-25T14:06:20.817Z,101164
2017-10-25T14:08:48.967Z,101159
2017-10-25T14:11:17.893Z,101169
2017-10-25T14:13:46.072Z,101186
2017-10-25T14:16:14.240Z,101171
2017-10-25T14:18:42.389Z,101165
2017-10-25T14:21:10.754Z,101162
2017-10-25T14:23:39.678Z,101165
2017-10-25T14:26:07.953Z,101172
2017-10-25T14:28:53.994Z,101165
2017-10-25T14:31:22.474Z,101160
2017-10-25T14:33:50.701Z,101154
2017-10-25T14:36:19.692Z,101172
2017-10-25T14:38:48.053Z,101178
2017-10-25T14:41:16.231Z,101174
2017-10-25T14:43:44.399Z,101178
2017-10-25T14:46:12.568Z,101189
2017-10-25T14:48:40.714Z,101182
2017-10-25T14:51:09.646Z,101185
2017-10-25T14:53:37.787Z,101187
2017-10-25T14:56:07.431Z,101202
2017-10-25T14:58:35.573Z,101203
2017-10-25T15:01:04.206Z,101204
2017-10-25T15:03:32.365Z,101218
2017-10-25T15:06:00.508Z,101223
2017-10-25T15:08:28.662Z,101226
2017-10-25T15:10:57.656Z,101213
2017-10-25T15:13:26.594Z,101215
2017-10-25T15:15:54.740Z,101226
2017-10-25T15:18:22.902Z,101233
2017-10-25T15:20:51.047Z,101247
2017-10-25T15:23:19.215Z,101213
2017-10-25T15:25:47.359Z,101221
2017-10-25T15:28:15.523Z,101230
2017-10-25T15:30:43.747Z,101237
2017-10-25T15:33:12.723Z,101230
2017-10-25T15:35:40.861Z,101234
2017-10-25T15:38:09.027Z,101240
2017-10-25T15:40:37.191Z,101239
2017-10-25T15:43:05.331Z,101247
2017-10-25T15:45:34.259Z,101234
2017-10-25T15:48:02.446Z,101232
2017-10-25T15:50:30.616Z,101243
2017-10-25T15:52:58.758Z,101244
2017-10-25T15:55:26.931Z,101242
2017-10-25T15:57:55.683Z,101248
2017-10-25T16:00:23.850Z,101246
2017-10-25T16:02:52.093Z,101264
2017-10-25T16:05:20.266Z,101261
2017-10-25T16:07:48.888Z,101260
2017-10-25T16:10:17.277Z,101265
2017-10-25T16:12:46.180Z,101288
2017-10-25T16:15:15.113Z,101290
2017-10-25T16:17:43.379Z,101276
2017-10-25T16:20:11.567Z,101287
2017-10-25T16:22:39.727Z,101299
2017-10-25T16:25:07.879Z,101312
2017-10-25T16:27:36.046Z,101306
2017-10-25T16:30:04.198Z,101299
2017-10-25T16:32:33.118Z,101301
2017-10-25T16:35:01.292Z,101301
2017-10-25T16:37:29.458Z,101303
2017-10-25T16:39:57.602Z,101299
2017-10-25T16:42:25.774Z,101309
2017-10-25T16:44:54.670Z,101311
2017-10-25T16:47:23.634Z,101314
2017-10-25T16:49:51.780Z,101306
2017-10-25T16:52:19.937Z,101306
2017-10-25T16:54:48.087Z,101317
2017-10-25T16:57:17.039Z,101332
2017-10-25T16:59:45.186Z,101315
2017-10-25T17:02:13.911Z,101320
2017-10-25T17:04:42.867Z,101328
2017-10-25T17:07:11.016Z,101334
2017-10-25T17:09:39.175Z,101340
2017-10-25T17:12:08.096Z,101341
2017-10-25T17:14:36.272Z,101339
2017-10-25T17:17:04.447Z,101342
2017-10-25T17:19:32.615Z,101357
2017-10-25T17:22:00.762Z,101357
2017-10-25T17:24:29.122Z,101363
2017-10-25T17:26:58.030Z,101367
2017-10-25T17:29:26.225Z,101367
2017-10-25T17:31:54.380Z,101364
2017-10-25T17:34:22.580Z,101379
2017-10-25T17:36:50.919Z,101369
2017-10-25T17:39:19.827Z,101365
2017-10-25T17:41:48.019Z,101359
2017-10-25T17:44:16.186Z,101371
2017-10-25T17:46:44.359Z,101377
2017-10-25T17:49:12.515Z,101383
2017-10-25T17:51:40.682Z,101385
2017-10-25T17:54:08.832Z,101394
2017-10-25T17:56:36.996Z,101390
2017-10-25T17:59:05.856Z,101398
2017-10-25T18:01:34.011Z,101393
2017-10-25T18:04:02.160Z,101410
2017-10-25T18:06:30.323Z,101414
2017-10-25T18:08:59.230Z,101410
2017-10-25T18:11:28.147Z,101413
2017-10-25T18:13:56.294Z,101411
2017-10-25T18:16:24.493Z,101415
2017-10-25T18:18:52.651Z,101428
2017-10-25T18:21:20.831Z,101420
2017-10-25T18:23:48.991Z,101424
2017-10-25T18:26:18.027Z,101431
2017-10-25T18:28:46.276Z,101433
2017-10-25T18:31:14.415Z,101432
2017-10-25T18:33:42.573Z,101437
2017-10-25T18:36:11.634Z,101428
2017-10-25T18:38:39.799Z,101427
2017-10-25T18:41:07.953Z,101444
2017-10-25T18:43:36.225Z,101446
2017-10-25T18:46:04.367Z,101454
2017-10-25T18:48:33.295Z,101456
2017-10-25T18:51:01.463Z,101450
2017-10-25T18:53:29.615Z,101451
2017-10-25T18:55:57.765Z,101447
2017-10-25T18:58:26.694Z,101463
2017-10-25T19:00:54.867Z,101458
2017-10-25T19:03:23.019Z,101475
2017-10-25T19:05:51.163Z,101482
2017-10-25T19:08:19.386Z,101479
2017-10-25T19:10:47.539Z,101482
2017-10-25T19:13:15.679Z,101482
2017-10-25T19:15:44.050Z,101472
2017-10-25T19:18:12.196Z,101467
2017-10-25T19:20:40.351Z,101468
2017-10-25T19:23:08.535Z,101483
2017-10-25T19:25:36.700Z,101480
2017-10-25T19:28:04.996Z,101487
2017-10-25T19:30:33.190Z,101485
2017-10-25T19:33:01.696Z,101494
2017-10-25T19:35:30.626Z,101495
2017-10-25T19:37:58.769Z,101490
2017-10-25T19:40:26.934Z,101504
2017-10-25T19:42:55.082Z,101507
2017-10-25T19:45:23.306Z,101518
2017-10-25T19:47:51.443Z,101523
2017-10-25T19:50:20.964Z,101521
2017-10-25T19:52:49.844Z,101506
2017-10-25T19:55:18.790Z,101516
2017-10-25T19:57:47.567Z,101518
2017-10-25T20:00:15.710Z,101522
2017-10-25T20:02:43.907Z,101530
2017-10-25T20:05:12.048Z,101526
2017-10-25T20:07:40.222Z,101537
2017-10-25T20:10:08.371Z,101537
2017-10-25T20:12:37.318Z,101540
2017-10-25T20:15:05.463Z,101545
2017-10-25T20:17:33.627Z,101545
2017-10-25T20:20:02.483Z,101538
2017-10-25T20:22:30.642Z,101541
2017-10-25T20:24:58.792Z,101541
2017-10-25T20:27:26.930Z,101545
2017-10-25T20:29:56.676Z,101562
2017-10-25T20:32:24.838Z,101561
2017-10-25T20:34:53.128Z,101561
2017-10-25T20:37:21.879Z,101569
2017-10-25T20:39:50.817Z,101556
2017-10-25T20:42:18.960Z,101553
2017-10-25T20:44:47.156Z,101558
2017-10-25T20:47:15.419Z,101558
2017-10-25T20:49:43.595Z,101570
2017-10-25T20:52:11.739Z,101578
2017-10-25T20:54:39.911Z,101581
2017-10-25T20:57:08.070Z,101579
2017-10-25T20:59:37.004Z,101582
2017-10-25T21:02:05.151Z,101576
2017-10-25T21:04:34.140Z,101575
2017-10-25T21:07:03.175Z,101595
2017-10-25T21:09:31.326Z,101587
2017-10-25T21:11:59.526Z,101580
2017-10-25T21:14:27.686Z,101594
2017-10-25T21:16:56.284Z,101594
2017-10-25T21:19:24.428Z,101594
2017-10-25T21:21:52.685Z,101593
2017-10-25T21:24:20.830Z,101603
2017-10-25T21:26:49.870Z,101614
2017-10-25T21:29:18.047Z,101605
2017-10-25T21:31:46.291Z,101612
2017-10-25T21:34:14.943Z,101618
2017-10-25T21:36:43.106Z,101604
2017-10-25T21:39:11.255Z,101600
2017-10-25T21:41:39.442Z,101619
2017-10-25T21:44:07.600Z,101614
2017-10-25T21:46:35.894Z,101615
2017-10-25T21:49:04.044Z,101602
2017-10-25T21:51:32.206Z,101616
2017-10-25T21:54:00.375Z,101609
2017-10-25T21:56:28.522Z,101628
2017-10-25T21:58:57.462Z,101621
2017-10-25T22:01:25.723Z,101633
2017-10-25T22:03:53.903Z,101626
2017-10-25T22:06:22.042Z,101629
2017-10-25T22:08:50.215Z,101629
2017-10-25T22:11:18.371Z,101624
2017-10-25T22:13:47.373Z,101614
2017-10-25T22:16:16.299Z,101630
2017-10-25T22:18:44.471Z,101631
2017-10-25T22:21:12.653Z,101629
2017-10-25T22:23:40.810Z,101621
2017-10-25T22:26:08.951Z,101620
2017-10-25T22:28:37.978Z,101619
2017-10-25T22:31:06.119Z,101617
2017-10-25T22:33:35.139Z,101626
2017-10-25T22:36:03.296Z,101626
2017-10-25T22:38:31.470Z,101629
2017-10-25T22:40:59.619Z,101638
2017-10-25T22:43:27.799Z,101641
2017-10-25T22:45:57.329Z,101644
2017-10-25T22:48:25.474Z,101644
2017-10-25T22:50:54.507Z,101646
2017-10-25T22:53:22.646Z,101645
2017-10-25T22:55:50.958Z,101648
2017-10-25T22:58:19.099Z,101649
2017-10-25T23:00:47.263Z,101657
2017-10-25T23:03:16.747Z,101655
2017-10-25T23:05:44.902Z,101652
2017-10-25T23:08:13.052Z,101655
2017-10-25T23:10:41.219Z,101655
2017-10-25T23:13:09.375Z,101658
2017-10-25T23:15:37.542Z,101667
2017-10-25T23:22:55.019Z,101660
2017-10-25T23:25:23.167Z,101668
2017-10-25T23:27:51.327Z,101670
2017-10-25T23:30:20.243Z,101666
2017-10-25T23:32:48.398Z,101662
2017-10-25T23:35:16.539Z,101659
2017-10-25T23:37:45.304Z,101669
2017-10-25T23:40:14.145Z,101664
2017-10-25T23:42:42.305Z,101672
2017-10-25T23:45:11.210Z,101661
2017-10-25T23:47:39.366Z,101670
2017-10-25T23:50:08.279Z,101673
2017-10-25T23:52:36.434Z,101686
2017-10-25T23:55:05.341Z,101682
2017-10-25T23:57:35.872Z,101683
